Time;durP1;ratioP1;P1;durP2;ratioP2;P2;SDS_P1;SDS_P2;PMS_P1;PMS_P2;Temp;Humidity;BMP_temperature;BMP_pressure;BME280_temperature;BME280_humidity;BME280_pressure;Samples;Min_cycle;Max_cycle;Signal;HPM_P1;HPM_P2
2022/08/20 04:36:10;;;;;;;28.10;25.50;;;;;;;21.50;100.00;98437.98;101372;1312;612666;-68
2022/08/20 04:38:37;;;;;;;24.40;22.20;;;;;;;21.66;100.00;98438.03;102843;1284;1419657;-68
2022/08/20 04:41:04;;;;;;;24.40;22.00;;;;;;;21.67;100.00;98442.09;103927;1283;60171;-68
2022/08/20 04:43:33;;;;;;;23.50;21.30;;;;;;;21.74;100.00;98444.11;103980;1283;72779;-69
2022/08/20 04:46:10;;;;;;;23.80;21.80;;;;;;;21.83;100.00;98445.02;103946;1283;70173;-70
2022/08/20 04:48:38;;;;;;;22.30;20.20;;;;;;;21.87;100.00;98440.86;103953;1283;73418;-69
2022/08/20 04:51:07;;;;;;;21.70;19.50;;;;;;;21.93;100.00;98441.77;103925;1283;60046;-70
2022/08/20 04:53:34;;;;;;;21.00;18.80;;;;;;;22.01;100.00;98446.92;103930;1283;60785;-70
2022/08/20 04:56:02;;;;;;;20.80;18.90;;;;;;;22.09;100.00;98451.29;103954;1283;73148;-69
2022/08/20 04:58:34;;;;;;;21.00;19.10;;;;;;;22.16;100.00;98450.20;103978;1283;70028;-69
2022/08/20 05:01:05;;;;;;;20.40;18.60;;;;;;;22.20;100.00;98446.98;103980;1283;73586;-69
2022/08/20 05:03:32;;;;;;;21.40;19.20;;;;;;;22.21;100.00;98444.73;103995;1283;60224;-67
2022/08/20 05:06:00;;;;;;;22.30;20.10;;;;;;;22.20;100.00;98440.52;103956;1283;60953;-69
2022/08/20 05:08:28;;;;;;;18.40;16.70;;;;;;;22.22;100.00;98441.90;103960;1283;74711;-69
2022/08/20 05:10:56;;;;;;;20.50;18.00;;;;;;;22.21;100.00;98441.44;103908;1283;69178;-69
2022/08/20 05:13:24;;;;;;;20.30;18.10;;;;;;;22.26;100.00;98441.53;103951;1283;71355;-70
2022/08/20 05:15:52;;;;;;;20.20;18.30;;;;;;;22.27;100.00;98445.34;103982;1283;59605;-69
2022/08/20 05:18:22;;;;;;;21.20;19.20;;;;;;;22.28;100.00;98450.91;103918;1283;59710;-68
2022/08/20 05:20:49;;;;;;;19.70;17.80;;;;;;;22.34;100.00;98459.38;103976;1283;73535;-69
2022/08/20 05:23:17;;;;;;;19.30;17.40;;;;;;;22.42;100.00;98462.25;103939;1283;69155;-69
2022/08/20 05:25:50;;;;;;;21.90;19.30;;;;;;;22.50;100.00;98459.15;103960;1283;73858;-69
2022/08/20 05:28:21;;;;;;;19.00;17.40;;;;;;;22.59;100.00;98449.20;104050;1283;60103;-69
2022/08/20 05:30:49;;;;;;;22.50;18.70;;;;;;;22.73;100.00;98444.26;104061;1284;60988;-69
2022/08/20 05:33:18;;;;;;;20.00;18.00;;;;;;;22.89;100.00;98440.68;103916;1284;75126;-69
2022/08/20 05:35:48;;;;;;;18.50;16.60;;;;;;;23.31;100.00;98440.39;103988;1284;69263;-69
2022/08/20 05:38:17;;;;;;;19.20;17.40;;;;;;;23.88;100.00;98438.49;103920;1284;73177;-70
2022/08/20 05:40:44;;;;;;;18.60;15.50;;;;;;;24.27;100.00;98443.48;103980;1284;60322;-68
2022/08/20 05:43:11;;;;;;;17.80;16.00;;;;;;;24.52;100.00;98446.81;103917;1284;62260;-70
2022/08/20 05:45:40;;;;;;;18.10;16.30;;;;;;;24.72;100.00;98455.64;103919;1284;73500;-69
2022/08/20 05:48:14;;;;;;;16.40;15.00;;;;;;;24.66;100.00;98463.75;103960;1284;69411;-71
2022/08/20 05:50:42;;;;;;;16.20;14.60;;;;;;;24.53;100.00;98467.27;103646;1285;74536;-70
2022/08/20 05:53:09;;;;;;;15.90;14.20;;;;;;;24.39;100.00;98471.69;103940;1284;61067;-69
2022/08/20 05:55:37;;;;;;;17.00;15.40;;;;;;;24.24;100.00;98476.15;103763;1284;59781;-68
2022/08/20 05:58:07;;;;;;;16.20;14.60;;;;;;;24.08;100.00;98476.09;104027;1284;73588;-68
2022/08/20 06:00:35;;;;;;;16.60;15.00;;;;;;;23.94;100.00;98472.91;103803;1287;69309;-68
2022/08/20 06:05:47;;;;;;;15.60;14.00;;;;;;;23.92;100.00;98479.65;103914;1284;60044;-68
2022/08/20 06:08:13;;;;;;;18.00;16.00;;;;;;;23.97;100.00;98477.25;103918;1284;59804;-68
2022/08/20 06:10:40;;;;;;;18.20;16.50;;;;;;;23.99;100.00;98480.70;103945;1284;74126;-69
2022/08/20 06:13:06;;;;;;;21.70;19.40;;;;;;;23.97;100.00;98479.00;103740;1284;68812;-70
2022/08/20 06:15:34;;;;;;;21.50;18.80;;;;;;;23.93;100.00;98481.20;103911;1284;59693;-69
2022/08/20 06:18:01;;;;;;;18.50;16.70;;;;;;;23.89;100.00;98479.84;103972;1284;60222;-70
2022/08/20 06:20:27;;;;;;;19.40;17.60;;;;;;;23.86;100.00;98475.01;103937;1284;61985;-68
2022/08/20 06:22:55;;;;;;;20.00;17.60;;;;;;;23.82;100.00;98470.55;104009;1284;73181;-70
2022/08/20 06:25:22;;;;;;;20.20;16.70;;;;;;;23.82;100.00;98462.59;103920;1284;69212;-69
2022/08/20 06:27:48;;;;;;;18.20;16.10;;;;;;;23.82;100.00;98459.62;103895;1284;73263;-69
2022/08/20 06:30:16;;;;;;;16.90;15.10;;;;;;;23.78;100.00;98454.80;103909;1284;59794;-70
2022/08/20 06:32:43;;;;;;;18.00;15.60;;;;;;;23.79;100.00;98456.84;103965;1284;60821;-68
2022/08/20 06:35:13;;;;;;;17.80;16.10;;;;;;;23.82;100.00;98457.77;103977;1284;73638;-69
2022/08/20 06:37:40;;;;;;;17.50;15.70;;;;;;;23.86;100.00;98455.05;103960;1284;69702;-68
2022/08/20 06:40:12;;;;;;;17.40;15.80;;;;;;;23.93;100.00;98451.59;103893;1287;73161;-69
2022/08/20 06:42:42;;;;;;;16.40;14.90;;;;;;;24.02;100.00;98451.14;103750;1286;61083;-70
2022/08/20 06:45:12;;;;;;;16.40;14.20;;;;;;;24.09;100.00;98448.20;103669;1287;60919;-69
2022/08/20 06:47:42;;;;;;;18.10;15.80;;;;;;;24.14;100.00;98448.72;104012;1284;73510;-71
2022/08/20 06:50:12;;;;;;;17.10;15.40;;;;;;;24.16;100.00;98447.72;104004;1284;69358;-70
2022/08/20 06:52:40;;;;;;;15.60;14.00;;;;;;;24.15;100.00;98449.06;103971;1284;71816;-69
2022/08/20 06:55:09;;;;;;;16.60;15.00;;;;;;;24.18;100.00;98451.88;103911;1284;60060;-70
2022/08/20 06:57:37;;;;;;;16.00;14.50;;;;;;;24.23;100.00;98454.74;103690;1285;59871;-69
2022/08/20 07:00:16;;;;;;;16.10;14.50;;;;;;;24.26;100.00;98455.73;103947;1284;73616;-69
2022/08/20 07:02:42;;;;;;;15.60;14.00;;;;;;;24.29;100.00;98452.05;103748;1284;68191;-70
2022/08/20 07:05:09;;;;;;;16.70;15.10;;;;;;;24.29;100.00;98443.41;103903;1284;59560;-69
2022/08/20 07:07:36;;;;;;;16.10;14.40;;;;;;;24.34;100.00;98442.02;103903;1284;61068;-70
2022/08/20 07:10:06;;;;;;;17.10;15.30;;;;;;;24.44;100.00;98444.98;103759;1285;60483;-68
2022/08/20 07:12:35;;;;;;;16.50;14.80;;;;;;;24.51;100.00;98446.45;103976;1284;75087;-70
2022/08/20 07:15:07;;;;;;;19.30;15.80;;;;;;;24.54;100.00;98445.70;103942;1284;69182;-70
2022/08/20 07:17:34;;;;;;;17.80;15.40;;;;;;;24.59;100.00;98446.13;103963;1284;74482;-69
2022/08/20 07:20:11;;;;;;;16.50;14.90;;;;;;;24.69;100.00;98450.98;103880;1284;61343;-69
2022/08/20 07:22:38;;;;;;;16.30;14.50;;;;;;;24.78;100.00;98457.86;103695;1284;60672;-68
2022/08/20 07:25:09;;;;;;;15.50;12.90;;;;;;;24.85;100.00;98466.30;104320;1280;72943;-68
2022/08/20 07:27:35;;;;;;;16.20;14.10;;;;;;;24.80;100.00;98476.36;104322;1281;69186;-69
2022/08/20 07:32:52;;;;;;;16.10;13.60;;;;;;;24.81;100.00;98487.64;104357;1277;60510;-70
2022/08/20 07:35:19;;;;;;;15.20;13.10;;;;;;;24.85;100.00;98483.15;104486;1277;60719;-70
2022/08/20 07:37:50;;;;;;;18.50;13.60;;;;;;;24.87;100.00;98480.57;104492;1277;73749;-70
2022/08/20 07:40:22;;;;;;;16.90;14.10;;;;;;;24.89;100.00;98478.77;104536;1277;69824;-69
2022/08/20 07:42:49;;;;;;;14.00;11.90;;;;;;;24.94;100.00;98479.31;104390;1278;74293;-69
2022/08/20 07:45:17;;;;;;;16.10;12.10;;;;;;;24.97;100.00;98476.67;104505;1277;59698;-69
2022/08/20 07:47:45;;;;;;;13.50;12.10;;;;;;;24.98;100.00;98478.86;104537;1277;62091;-70
2022/08/20 07:50:15;;;;;;;13.30;11.90;;;;;;;24.93;100.00;98479.98;104568;1277;73531;-69
2022/08/20 07:52:42;;;;;;;14.50;11.90;;;;;;;24.90;100.00;98477.38;104357;1277;67722;-68
2022/08/20 07:55:10;;;;;;;13.60;12.20;;;;;;;24.87;100.00;98475.11;104816;1277;59605;-70
2022/08/20 07:57:38;;;;;;;14.80;11.90;;;;;;;24.84;100.00;98473.85;104834;1277;60356;-70
2022/08/20 08:00:07;;;;;;;15.40;12.30;;;;;;;24.80;100.00;98480.71;104529;1277;60920;-69
2022/08/20 08:02:35;;;;;;;14.30;11.10;;;;;;;24.74;100.00;98482.05;104849;1277;72615;-70
2022/08/20 08:05:04;;;;;;;13.90;12.30;;;;;;;24.74;100.00;98489.27;104747;1277;67893;-70
2022/08/20 08:07:32;;;;;;;12.50;11.30;;;;;;;24.78;100.00;98491.15;104792;1277;73175;-69
2022/08/20 08:10:01;;;;;;;14.00;12.50;;;;;;;24.80;100.00;98493.64;104872;1277;60230;-70
2022/08/20 08:12:35;;;;;;;13.50;11.80;;;;;;;24.82;100.00;98488.98;104849;1277;60802;-70
2022/08/20 08:15:05;;;;;;;15.20;12.30;;;;;;;24.80;100.00;98491.24;104823;1277;73844;-70
2022/08/20 08:17:33;;;;;;;16.70;13.90;;;;;;;24.73;100.00;98494.58;104792;1277;70397;-70
2022/08/20 08:20:00;;;;;;;14.30;11.80;;;;;;;24.62;100.00;98499.67;104824;1277;73844;-69
2022/08/20 08:22:31;;;;;;;14.00;12.50;;;;;;;24.50;100.00;98506.13;104800;1277;60197;-69
2022/08/20 08:25:01;;;;;;;21.60;13.70;;;;;;;24.37;100.00;98503.89;104855;1277;59774;-70
2022/08/20 08:27:31;;;;;;;19.20;13.90;;;;;;;24.22;100.00;98500.65;104815;1277;73524;-68
2022/08/20 08:30:02;;;;;;;17.30;13.80;;;;;;;23.89;100.00;98491.55;104860;1277;69161;-69
2022/08/20 08:32:31;;;;;;;22.10;16.40;;;;;;;23.26;100.00;98490.91;104801;1274;73420;-70
2022/08/20 08:35:03;;;;;;;17.30;14.70;;;;;;;22.73;100.00;98477.27;104827;1277;60154;-70
2022/08/20 08:37:30;;;;;;;18.40;14.10;;;;;;;22.34;100.00;98471.53;104844;1276;59742;-73
2022/08/20 08:39:56;;;;;;;18.20;14.10;;;;;;;22.06;100.00;98469.73;104528;1277;59693;-71
2022/08/20 08:42:46;;;;;;;17.00;15.40;;;;;;;21.87;100.00;98482.27;104794;1277;59677;-71
2022/08/20 08:45:16;;;;;;;18.40;16.50;;;;;;;21.80;100.00;98481.91;104358;1277;72627;-72
2022/08/20 08:47:44;;;;;;;17.80;16.10;;;;;;;21.85;100.00;98487.25;104805;1277;60661;-71
2022/08/20 08:50:21;;;;;;;18.90;17.00;;;;;;;21.92;100.00;98486.05;104864;1275;60850;-73
2022/08/20 08:52:51;;;;;;;21.40;19.40;;;;;;;22.01;100.00;98482.23;104819;1277;74450;-72
2022/08/20 08:55:20;;;;;;;20.30;18.30;;;;;;;22.11;100.00;98476.14;104525;1277;69454;-72
2022/08/20 08:57:48;;;;;;;19.30;17.20;;;;;;;22.21;100.00;98466.45;104780;1276;74126;-72
2022/08/20 09:00:20;;;;;;;21.20;18.90;;;;;;;22.28;100.00;98460.69;104726;1277;61059;-71
2022/08/20 09:03:18;;;;;;;20.70;18.50;;;;;;;22.38;100.00;98458.67;104841;1275;60488;-71
2022/08/20 09:05:48;;;;;;;21.70;19.50;;;;;;;22.55;100.00;98454.73;103993;1284;74694;-71
2022/08/20 09:08:18;;;;;;;20.80;18.90;;;;;;;22.60;100.00;98445.41;103832;1286;70362;-71
2022/08/20 09:10:45;;;;;;;21.10;19.10;;;;;;;22.69;100.00;98446.30;103932;1284;73502;-71
2022/08/20 09:13:12;;;;;;;20.80;18.60;;;;;;;22.88;100.00;98448.40;103895;1284;60514;-70
2022/08/20 09:15:38;;;;;;;18.70;16.80;;;;;;;23.11;100.00;98460.39;103934;1284;61099;-73
2022/08/20 09:18:05;;;;;;;18.70;16.70;;;;;;;23.32;100.00;98463.48;103996;1284;75625;-72
2022/08/20 09:20:31;;;;;;;16.00;14.10;;;;;;;23.53;100.00;98468.33;103712;1284;70442;-72
2022/08/20 09:22:58;;;;;;;19.40;15.80;;;;;;;23.76;100.00;98469.79;103980;1284;73518;-71
2022/08/20 09:25:25;;;;;;;16.40;14.60;;;;;;;23.93;100.00;98466.59;103899;1284;60559;-72
2022/08/20 09:27:51;;;;;;;21.60;16.20;;;;;;;24.18;100.00;98454.06;103969;1284;60981;-72
2022/08/20 09:30:19;;;;;;;20.40;18.50;;;;;;;24.41;100.00;98451.63;103876;1284;60615;-71
2022/08/20 09:32:45;;;;;;;18.90;15.40;;;;;;;24.57;100.00;98452.61;103834;1286;69447;-72
2022/08/20 09:35:12;;;;;;;17.80;15.80;;;;;;;24.61;100.00;98459.47;103924;1284;60669;-72
2022/08/20 09:37:40;;;;;;;21.10;15.90;;;;;;;24.64;100.00;98463.45;103915;1284;60576;-72
2022/08/20 09:40:08;;;;;;;17.90;13.30;;;;;;;24.67;100.00;98466.27;103984;1284;61001;-73
2022/08/20 09:42:37;;;;;;;16.90;13.10;;;;;;;24.66;100.00;98470.25;104048;1277;75583;-72
2022/08/20 09:47:57;;;;;;;14.40;12.90;;;;;;;24.73;100.00;98481.25;104803;1274;73743;-72
2022/08/20 09:50:29;;;;;;;18.90;14.10;;;;;;;24.70;100.00;98478.81;104944;1274;61015;-72
2022/08/20 09:52:58;;;;;;;17.30;15.60;;;;;;;24.67;100.00;98482.11;104869;1274;61087;-72
2022/08/20 09:55:38;;;;;;;16.80;15.20;;;;;;;24.66;100.00;98483.25;104903;1274;75655;-71
2022/08/20 09:58:17;;;;;;;17.40;15.60;;;;;;;24.64;100.00;98479.80;104867;1274;69396;-72
2022/08/20 10:00:44;;;;;;;18.10;16.20;;;;;;;24.57;100.00;98475.69;104857;1274;75012;-72
2022/08/20 10:03:10;;;;;;;17.70;15.80;;;;;;;24.51;100.00;98470.59;104879;1274;60591;-72
2022/08/20 10:05:37;;;;;;;17.60;15.50;;;;;;;24.51;100.00;98464.09;104881;1274;60543;-71
2022/08/20 10:08:06;;;;;;;20.20;16.20;;;;;;;24.56;100.00;98468.77;104930;1274;74326;-72
2022/08/20 10:10:33;;;;;;;19.20;16.70;;;;;;;24.63;100.00;98462.86;104927;1273;69185;-72
2022/08/20 10:12:59;;;;;;;18.60;16.00;;;;;;;24.71;100.00;98462.27;104764;1274;73376;-72
2022/08/20 10:15:26;;;;;;;19.50;15.80;;;;;;;24.79;100.00;98459.54;104874;1274;60622;-71
2022/08/20 10:17:52;;;;;;;17.10;14.80;;;;;;;24.87;100.00;98463.08;104880;1274;60509;-71
2022/08/20 10:20:19;;;;;;;14.80;13.30;;;;;;;24.99;100.00;98465.66;104871;1274;75344;-70
2022/08/20 10:22:46;;;;;;;18.20;14.70;;;;;;;25.03;100.00;98464.52;104806;1274;70232;-73
2022/08/20 10:25:12;;;;;;;16.00;14.30;;;;;;;25.09;100.00;98465.27;104868;1274;60498;-72
2022/08/20 10:27:39;;;;;;;14.20;12.80;;;;;;;25.21;100.00;98460.10;104878;1274;61004;-71
2022/08/20 10:30:06;;;;;;;13.00;10.70;;;;;;;25.27;100.00;98458.39;104839;1274;60449;-72
2022/08/20 10:32:33;;;;;;;13.30;11.40;;;;;;;25.29;100.00;98456.46;104645;1274;73335;-71
2022/08/20 10:34:59;;;;;;;12.80;10.70;;;;;;;25.35;100.00;98455.62;104908;1274;69198;-71
2022/08/20 10:37:26;;;;;;;14.30;10.90;;;;;;;25.36;100.00;98456.95;104878;1274;73540;-72
2022/08/20 10:39:54;;;;;;;13.20;11.20;;;;;;;25.37;100.00;98458.75;104871;1274;61028;-71
2022/08/20 10:42:20;;;;;;;18.30;11.40;;;;;;;25.44;100.00;98464.30;104895;1274;61241;-72
2022/08/20 10:44:47;;;;;;;13.20;9.70;;;;;;;25.43;100.00;98464.89;104811;1274;74424;-72
2022/08/20 10:47:14;;;;;;;11.40;9.60;;;;;;;25.39;100.00;98465.05;104929;1274;69398;-73
2022/08/20 10:49:40;;;;;;;10.30;8.30;;;;;;;25.30;100.00;98465.61;104855;1274;74492;-74
2022/08/20 10:52:07;;;;;;;11.60;8.40;;;;;;;25.20;100.00;98464.09;104705;1274;60590;-72
2022/08/20 10:54:33;;;;;;;13.20;9.10;;;;;;;25.06;100.00;98463.92;104856;1274;60574;-73
2022/08/20 10:57:02;;;;;;;13.50;9.20;;;;;;;24.94;100.00;98462.37;104894;1274;60478;-71
2022/08/20 10:59:29;;;;;;;12.50;9.40;;;;;;;24.88;100.00;98462.02;104865;1274;70128;-72
2022/08/20 11:01:55;;;;;;;15.60;8.80;;;;;;;24.85;100.00;98459.30;104866;1274;73308;-72
2022/08/20 11:04:23;;;;;;;11.10;8.70;;;;;;;24.84;100.00;98457.08;104851;1274;60490;-72
2022/08/20 11:06:49;;;;;;;12.30;8.30;;;;;;;24.83;100.00;98460.90;104794;1274;60465;-72
2022/08/20 11:09:15;;;;;;;11.10;8.80;;;;;;;24.79;100.00;98463.39;104893;1274;60390;-72
2022/08/20 11:11:42;;;;;;;11.70;8.20;;;;;;;24.73;100.00;98465.15;104855;1274;60404;-72
2022/08/20 11:14:08;;;;;;;12.40;8.00;;;;;;;24.63;100.00;98467.44;104880;1274;60495;-72
2022/08/20 11:16:35;;;;;;;13.10;8.80;;;;;;;24.54;100.00;98475.45;104881;1274;60429;-72
2022/08/20 11:19:02;;;;;;;11.10;8.60;;;;;;;24.43;100.00;98483.41;104882;1274;60593;-72
2022/08/20 11:21:28;;;;;;;12.70;10.70;;;;;;;24.31;100.00;98489.59;104873;1274;60595;-72
2022/08/20 11:23:54;;;;;;;16.70;11.70;;;;;;;24.14;100.00;98483.95;104854;1273;60507;-72
2022/08/20 11:26:23;;;;;;;13.30;11.20;;;;;;;23.92;100.00;98478.35;104863;1274;60507;-71
2022/08/20 11:28:50;;;;;;;15.50;12.20;;;;;;;23.69;100.00;98475.89;104841;1274;61192;-72
2022/08/20 11:31:17;;;;;;;19.30;14.40;;;;;;;23.56;100.00;98473.75;104913;1274;61738;-72
2022/08/20 11:33:43;;;;;;;17.60;14.30;;;;;;;23.46;100.00;98464.68;104860;1274;60398;-71
2022/08/20 11:36:10;;;;;;;17.10;15.00;;;;;;;23.38;100.00;98465.00;104899;1274;69326;-71
2022/08/20 11:38:37;;;;;;;17.20;15.30;;;;;;;23.36;100.00;98469.46;104845;1274;73189;-72
2022/08/20 11:41:03;;;;;;;18.70;15.40;;;;;;;23.34;100.00;98469.39;104870;1274;60525;-72
2022/08/20 11:43:30;;;;;;;17.30;14.00;;;;;;;23.31;100.00;98459.92;104868;1274;60341;-71
2022/08/20 11:45:57;;;;;;;17.70;15.90;;;;;;;23.30;100.00;98451.05;104880;1274;75563;-72
2022/08/20 11:48:23;;;;;;;17.80;15.90;;;;;;;23.30;100.00;98445.45;104852;1274;69758;-72
2022/08/20 11:50:50;;;;;;;20.30;18.20;;;;;;;23.34;100.00;98440.95;104899;1274;73195;-72
2022/08/20 11:53:17;;;;;;;22.60;19.90;;;;;;;23.39;100.00;98437.05;104856;1274;61271;-72
2022/08/20 11:55:44;;;;;;;21.50;19.20;;;;;;;23.45;100.00;98434.55;104891;1273;60926;-71
2022/08/20 11:58:11;;;;;;;20.10;18.10;;;;;;;23.46;100.00;98429.95;104915;1274;75563;-72
2022/08/20 12:00:37;;;;;;;21.60;19.40;;;;;;;23.42;100.00;98434.60;104787;1274;69204;-71
2022/08/20 12:03:06;;;;;;;24.30;21.80;;;;;;;23.43;100.00;98427.25;104851;1274;74476;-71
2022/08/20 12:05:32;;;;;;;23.70;21.10;;;;;;;23.43;100.00;98417.98;104851;1274;60622;-72
2022/08/20 12:08:00;;;;;;;24.20;21.80;;;;;;;23.42;100.00;98416.41;104863;1274;60392;-72
2022/08/20 12:10:28;;;;;;;26.80;23.00;;;;;;;23.46;100.00;98419.27;104917;1273;74472;-72
2022/08/20 12:12:54;;;;;;;25.90;20.80;;;;;;;23.48;100.00;98430.02;104864;1274;68247;-71
2022/08/20 12:15:21;;;;;;;20.50;18.50;;;;;;;23.44;100.00;98430.31;104851;1274;71591;-72
2022/08/20 12:17:47;;;;;;;19.60;17.80;;;;;;;23.41;100.00;98437.61;104861;1274;60579;-71
2022/08/20 12:20:15;;;;;;;20.00;17.80;;;;;;;23.34;100.00;98447.61;104878;1274;60489;-72
2022/08/20 12:22:42;;;;;;;18.40;16.50;;;;;;;23.25;100.00;98448.84;104920;1274;74357;-71
2022/08/20 12:25:10;;;;;;;19.50;16.50;;;;;;;23.14;100.00;98452.89;104733;1274;68899;-72
2022/08/20 12:27:37;;;;;;;17.40;15.50;;;;;;;22.99;100.00;98455.73;104503;1274;74245;-70
2022/08/20 12:30:11;;;;;;;17.50;15.10;;;;;;;22.85;100.00;98463.48;104884;1274;60607;-69
2022/08/20 12:32:38;;;;;;;27.40;17.90;;;;;;;22.71;100.00;98464.09;104918;1274;60813;-71
2022/08/20 12:38:04;;;;;;;15.10;13.50;;;;;;;22.47;100.00;98459.15;104806;1274;67499;-71
2022/08/20 12:40:31;;;;;;;15.50;13.90;;;;;;;22.38;100.00;98460.00;104856;1274;72405;-71
2022/08/20 12:42:57;;;;;;;13.70;12.30;;;;;;;22.27;100.00;98460.56;104775;1274;60581;-71
2022/08/20 12:45:24;;;;;;;14.90;13.30;;;;;;;22.16;100.00;98460.08;104861;1274;60507;-71
2022/08/20 12:47:50;;;;;;;14.40;13.00;;;;;;;22.09;100.00;98462.42;104867;1274;75468;-70
2022/08/20 12:50:21;;;;;;;15.50;14.10;;;;;;;22.02;100.00;98467.44;104899;1274;60526;-71
2022/08/20 12:52:48;;;;;;;15.60;14.10;;;;;;;21.99;100.00;98488.27;104581;1274;73321;-70
2022/08/20 12:55:18;;;;;;;15.70;14.20;;;;;;;21.98;100.00;98511.03;104537;1274;60610;-70
2022/08/20 12:57:55;;;;;;;16.10;14.70;;;;;;;21.92;100.00;98528.50;104946;1274;61124;-70
2022/08/20 13:00:25;;;;;;;16.70;13.00;;;;;;;21.82;100.00;98541.51;104922;1274;75707;-70
2022/08/20 13:02:54;;;;;;;16.80;14.10;;;;;;;21.68;100.00;98541.54;104858;1274;67866;-71
2022/08/20 13:05:21;;;;;;;16.00;14.10;;;;;;;21.60;100.00;98544.56;104882;1274;73175;-71
2022/08/20 13:07:48;;;;;;;15.50;13.20;;;;;;;21.51;100.00;98550.67;104695;1277;61028;-70
2022/08/20 13:10:19;;;;;;;15.40;13.80;;;;;;;21.41;100.00;98550.60;104739;1274;60900;-71
2022/08/20 13:12:46;;;;;;;16.60;15.00;;;;;;;21.31;100.00;98558.07;104702;1277;74910;-71
2022/08/20 13:15:13;;;;;;;18.00;15.90;;;;;;;21.27;100.00;98566.11;104737;1277;69365;-70
2022/08/20 13:17:40;;;;;;;19.50;17.50;;;;;;;21.26;100.00;98574.00;104748;1277;73582;-70
2022/08/20 13:20:11;;;;;;;22.10;17.50;;;;;;;21.26;100.00;98588.80;104742;1277;60628;-70
2022/08/20 13:22:38;;;;;;;20.60;17.60;;;;;;;21.24;100.00;98610.14;104835;1277;62285;-71
2022/08/20 13:25:06;;;;;;;20.10;17.30;;;;;;;21.20;100.00;98616.77;104763;1277;74708;-70
2022/08/20 13:27:37;;;;;;;14.40;11.20;;;;;;;21.14;100.00;98602.71;104453;1277;69154;-70
2022/08/20 13:30:07;;;;;;;11.60;10.30;;;;;;;21.05;100.00;98604.51;104375;1279;74470;-72
2022/08/20 13:32:33;;;;;;;12.70;9.80;;;;;;;20.96;100.00;98598.88;104714;1277;61049;-70
2022/08/20 13:35:00;;;;;;;10.30;8.00;;;;;;;20.84;100.00;98588.30;104720;1277;60765;-69
2022/08/20 13:37:28;;;;;;;11.90;7.50;;;;;;;20.73;100.00;98583.86;104717;1277;74652;-70
2022/08/20 13:39:57;;;;;;;10.00;8.40;;;;;;;20.64;100.00;98589.58;104836;1274;69171;-70
2022/08/20 13:42:24;;;;;;;10.60;8.80;;;;;;;20.57;100.00;98588.15;104897;1274;73209;-71
2022/08/20 13:44:52;;;;;;;11.10;8.30;;;;;;;20.51;100.00;98589.39;104857;1274;60497;-69
2022/08/20 13:47:28;;;;;;;9.30;7.60;;;;;;;20.43;100.00;98583.65;104914;1274;60767;-70
2022/08/20 13:50:07;;;;;;;9.10;8.10;;;;;;;20.31;100.00;98583.40;104939;1273;74908;-70
2022/08/20 13:52:33;;;;;;;10.10;7.80;;;;;;;20.27;100.00;98585.16;104785;1274;69194;-71
2022/08/20 13:55:00;;;;;;;9.90;7.90;;;;;;;20.24;100.00;98586.55;104878;1274;73611;-70
2022/08/20 13:57:27;;;;;;;11.20;8.10;;;;;;;20.21;100.00;98590.36;104893;1274;60657;-70
2022/08/20 13:59:56;;;;;;;10.30;8.40;;;;;;;20.16;100.00;98580.28;104875;1274;61490;-72
2022/08/20 14:02:24;;;;;;;10.10;8.60;;;;;;;20.06;100.00;98565.48;104943;1274;74323;-72
2022/08/20 14:04:51;;;;;;;10.10;9.10;;;;;;;19.99;100.00;98582.34;104988;1274;69043;-72
2022/08/20 14:07:22;;;;;;;9.80;8.00;;;;;;;19.98;100.00;98598.55;104882;1274;74492;-73
2022/08/20 14:09:52;;;;;;;10.20;8.40;;;;;;;19.89;100.00;98590.98;104859;1274;61183;-73
2022/08/20 14:12:21;;;;;;;9.50;8.60;;;;;;;19.86;100.00;98600.59;104935;1274;62195;-71
2022/08/20 14:14:50;;;;;;;9.80;8.10;;;;;;;19.80;100.00;98590.96;104953;1274;75562;-73
2022/08/20 14:17:19;;;;;;;9.30;7.60;;;;;;;19.72;100.00;98578.88;104958;1273;69628;-71
2022/08/20 14:19:47;;;;;;;8.90;7.50;;;;;;;19.62;100.00;98568.05;104876;1274;74420;-72
2022/08/20 14:22:17;;;;;;;10.30;8.20;;;;;;;19.54;100.00;98554.00;104913;1274;61059;-73
2022/08/20 14:24:45;;;;;;;7.70;6.70;;;;;;;19.47;100.00;98546.98;104905;1274;61312;-71
2022/08/20 14:27:13;;;;;;;9.30;7.60;;;;;;;19.43;100.00;98545.42;104961;1274;75276;-72
2022/08/20 14:29:41;;;;;;;8.40;7.50;;;;;;;19.42;100.00;98539.45;104892;1274;69293;-74
2022/08/20 14:32:09;;;;;;;8.90;7.90;;;;;;;19.39;100.00;98533.13;104878;1274;73552;-71
2022/08/20 14:34:36;;;;;;;10.80;8.90;;;;;;;19.35;100.00;98528.34;104876;1274;62080;-71
2022/08/20 14:37:09;;;;;;;10.30;8.60;;;;;;;19.33;100.00;98526.77;104885;1274;61948;-71
2022/08/20 14:39:36;;;;;;;9.20;8.40;;;;;;;19.30;100.00;98522.54;104889;1274;74417;-70
2022/08/20 14:42:03;;;;;;;10.00;9.10;;;;;;;19.26;100.00;98510.38;104911;1274;70137;-70
2022/08/20 14:44:29;;;;;;;9.70;8.60;;;;;;;19.21;100.00;98487.52;104838;1274;72806;-71
2022/08/20 14:46:57;;;;;;;9.00;8.20;;;;;;;19.14;100.00;98478.58;104864;1273;61048;-70
2022/08/20 14:49:23;;;;;;;11.60;9.20;;;;;;;19.08;100.00;98480.41;104841;1274;60969;-71
2022/08/20 14:51:50;;;;;;;10.00;8.60;;;;;;;19.04;100.00;98496.67;104886;1273;75649;-70
2022/08/20 14:54:16;;;;;;;11.80;9.20;;;;;;;19.03;100.00;98508.45;104873;1274;60508;-71
2022/08/20 14:56:43;;;;;;;11.20;9.40;;;;;;;19.03;100.00;98512.11;104864;1274;73259;-71
2022/08/20 14:59:09;;;;;;;12.10;9.80;;;;;;;19.05;100.00;98515.10;104880;1274;60468;-71
2022/08/20 15:01:36;;;;;;;14.10;9.80;;;;;;;19.06;100.00;98504.52;104869;1273;60469;-71
2022/08/20 15:04:02;;;;;;;12.40;10.20;;;;;;;19.07;100.00;98500.45;104866;1274;60581;-71
2022/08/20 15:06:29;;;;;;;11.60;10.10;;;;;;;19.07;100.00;98506.70;104874;1274;70179;-71
2022/08/20 15:08:56;;;;;;;13.40;10.80;;;;;;;19.10;100.00;98514.00;104881;1274;73156;-71
2022/08/20 15:11:23;;;;;;;14.90;11.30;;;;;;;19.16;100.00;98513.56;104876;1274;60505;-71
2022/08/20 15:13:49;;;;;;;12.70;11.00;;;;;;;19.19;100.00;98514.23;104900;1274;60507;-72
2022/08/20 15:16:15;;;;;;;12.80;11.50;;;;;;;19.20;100.00;98512.50;104883;1274;60599;-72
2022/08/20 15:18:42;;;;;;;16.20;12.00;;;;;;;19.20;100.00;98511.57;104853;1272;60461;-71
2022/08/20 15:21:08;;;;;;;13.10;11.80;;;;;;;19.21;100.00;98510.95;104881;1274;60481;-72
2022/08/20 15:23:35;;;;;;;14.80;11.10;;;;;;;19.22;100.00;98508.55;104856;1274;60459;-72
2022/08/20 15:26:02;;;;;;;14.70;11.80;;;;;;;19.23;100.00;98501.80;104830;1274;60451;-71
2022/08/20 15:28:28;;;;;;;12.40;11.10;;;;;;;19.24;100.00;98495.69;104853;1274;75432;-71
2022/08/20 15:30:55;;;;;;;14.70;12.20;;;;;;;19.28;100.00;98488.80;104889;1274;60505;-70
2022/08/20 15:33:21;;;;;;;18.00;14.00;;;;;;;19.32;100.00;98478.77;104883;1274;74389;-71
2022/08/20 15:35:48;;;;;;;19.10;17.20;;;;;;;19.33;100.00;98471.14;104867;1274;61222;-71
2022/08/20 15:38:15;;;;;;;18.40;16.70;;;;;;;19.35;100.00;98468.16;104878;1274;61013;-71
2022/08/20 15:40:41;;;;;;;19.00;16.50;;;;;;;19.40;100.00;98464.94;104891;1274;75545;-71
2022/08/20 15:43:08;;;;;;;16.20;14.20;;;;;;;19.45;100.00;98466.85;104887;1274;70587;-70
2022/08/20 15:45:35;;;;;;;15.10;13.60;;;;;;;19.48;100.00;98473.02;104887;1274;73434;-73
2022/08/20 15:48:11;;;;;;;15.80;14.10;;;;;;;19.50;100.00;98478.16;104940;1274;60390;-72
2022/08/20 15:51:00;;;;;;;16.40;14.90;;;;;;;19.58;100.00;98483.64;104883;1274;60809;-72
2022/08/20 15:53:38;;;;;;;17.50;13.60;;;;;;;19.64;100.00;98474.44;104915;1274;75424;-71
2022/08/20 15:56:47;;;;;;;14.40;12.90;;;;;;;19.72;100.00;98470.56;104817;1274;67382;-73